sensor_id;sensor_type;location;lat;lon;timestamp;pressure;altitude;pressure_sealevel;temperature;humidity
32109;BME280;18624;50.042;8.436;2022-10-17T00:01:35;100896.94;;;14.58;100.00
32109;BME280;18624;50.042;8.436;2022-10-17T00:04:02;100901.03;;;14.53;100.00
32109;BME280;18624;50.042;8.436;2022-10-17T00:06:29;100899.59;;;14.49;100.00
32109;BME280;18624;50.042;8.436;2022-10-17T00:08:55;100900.78;;;14.48;100.00
32109;BME280;18624;50.042;8.436;2022-10-17T00:11:22;100907.88;;;14.49;100.00
32109;BME280;18624;50.042;8.436;2022-10-17T00:13:50;100906.31;;;14.48;100.00
32109;BME280;18624;50.042;8.436;2022-10-17T00:16:27;100900.22;;;14.40;100.00
32109;BME280;18624;50.042;8.436;2022-10-17T00:18:54;100887.09;;;14.31;100.00
32109;BME280;18624;50.042;8.436;2022-10-17T00:21:22;100905.53;;;14.47;100.00
32109;BME280;18624;50.042;8.436;2022-10-17T00:23:49;100875.09;;;14.25;100.00
32109;BME280;18624;50.042;8.436;2022-10-17T00:26:15;100912.63;;;14.48;100.00
32109;BME280;18624;50.042;8.436;2022-10-17T00:28:48;100919.25;;;14.51;100.00
32109;BME280;18624;50.042;8.436;2022-10-17T00:31:16;100911.41;;;14.49;100.00
32109;BME280;18624;50.042;8.436;2022-10-17T00:33:44;100919.78;;;14.46;100.00
32109;BME280;18624;50.042;8.436;2022-10-17T00:36:16;100920.56;;;14.46;100.00
32109;BME280;18624;50.042;8.436;2022-10-17T00:38:45;100929.59;;;14.47;100.00
32109;BME280;18624;50.042;8.436;2022-10-17T00:41:14;100921.09;;;14.41;100.00
32109;BME280;18624;50.042;8.436;2022-10-17T00:44:01;100926.50;;;14.44;100.00
32109;BME280;18624;50.042;8.436;2022-10-17T00:46:30;100925.06;;;14.40;100.00
32109;BME280;18624;50.042;8.436;2022-10-17T00:49:00;100924.75;;;14.38;100.00
32109;BME280;18624;50.042;8.436;2022-10-17T00:51:33;100933.78;;;14.38;100.00
32109;BME280;18624;50.042;8.436;2022-10-17T00:54:00;100930.69;;;14.36;100.00
32109;BME280;18624;50.042;8.436;2022-10-17T00:56:28;100934.34;;;14.33;100.00
32109;BME280;18624;50.042;8.436;2022-10-17T00:58:55;100931.22;;;14.31;100.00
32109;BME280;18624;50.042;8.436;2022-10-17T01:01:22;100935.19;;;14.30;100.00
32109;BME280;18624;50.042;8.436;2022-10-17T01:03:48;100929.78;;;14.27;100.00
32109;BME280;18624;50.042;8.436;2022-10-17T01:06:16;100934.22;;;14.24;100.00
32109;BME280;18624;50.042;8.436;2022-10-17T01:08:43;100936.22;;;14.24;100.00
32109;BME280;18624;50.042;8.436;2022-10-17T01:11:34;100931.66;;;14.17;100.00
32109;BME280;18624;50.042;8.436;2022-10-17T01:14:31;100930.13;;;14.16;100.00
32109;BME280;18624;50.042;8.436;2022-10-17T01:17:09;100930.91;;;14.16;100.00
32109;BME280;18624;50.042;8.436;2022-10-17T01:22:28;100910.59;;;13.98;100.00
32109;BME280;18624;50.042;8.436;2022-10-17T01:25:01;100926.69;;;14.12;100.00
32109;BME280;18624;50.042;8.436;2022-10-17T01:27:58;100931.22;;;14.06;100.00
32109;BME280;18624;50.042;8.436;2022-10-17T01:30:53;100930.88;;;14.04;100.00
32109;BME280;18624;50.042;8.436;2022-10-17T01:36:22;100926.56;;;14.03;100.00
32109;BME280;18624;50.042;8.436;2022-10-17T01:38:56;100920.75;;;14.01;100.00
32109;BME280;18624;50.042;8.436;2022-10-17T01:41:45;100923.16;;;13.99;100.00
32109;BME280;18624;50.042;8.436;2022-10-17T01:44:24;100913.34;;;13.98;100.00
32109;BME280;18624;50.042;8.436;2022-10-17T01:46:58;100918.50;;;13.96;100.00
32109;BME280;18624;50.042;8.436;2022-10-17T01:49:28;100817.09;;;13.23;100.00
32109;BME280;18624;50.042;8.436;2022-10-17T01:52:06;100926.44;;;13.93;100.00
32109;BME280;18624;50.042;8.436;2022-10-17T01:54:41;100925.78;;;13.89;100.00
32109;BME280;18624;50.042;8.436;2022-10-17T01:57:14;100925.34;;;13.91;100.00
32109;BME280;18624;50.042;8.436;2022-10-17T01:59:45;100925.88;;;13.86;100.00
32109;BME280;18624;50.042;8.436;2022-10-17T02:02:16;100875.44;;;13.47;100.00
32109;BME280;18624;50.042;8.436;2022-10-17T02:04:45;100917.47;;;13.77;100.00
32109;BME280;18624;50.042;8.436;2022-10-17T02:07:14;100930.72;;;13.82;100.00
32109;BME280;18624;50.042;8.436;2022-10-17T02:09:40;100922.56;;;13.78;100.00
32109;BME280;18624;50.042;8.436;2022-10-17T02:15:08;100926.88;;;13.79;100.00
32109;BME280;18624;50.042;8.436;2022-10-17T02:18:46;100920.59;;;13.79;100.00
32109;BME280;18624;50.042;8.436;2022-10-17T02:21:00;100919.91;;;13.75;100.00
32109;BME280;18624;50.042;8.436;2022-10-17T02:26:29;100908.00;;;13.65;100.00
32109;BME280;18624;50.042;8.436;2022-10-17T02:29:15;100925.06;;;13.73;100.00
32109;BME280;18624;50.042;8.436;2022-10-17T02:34:25;100924.75;;;13.71;100.00
32109;BME280;18624;50.042;8.436;2022-10-17T02:40:05;100935.00;;;13.70;100.00
32109;BME280;18624;50.042;8.436;2022-10-17T02:42:37;100905.28;;;13.49;100.00
32109;BME280;18624;50.042;8.436;2022-10-17T02:45:05;100928.03;;;13.65;100.00
32109;BME280;18624;50.042;8.436;2022-10-17T02:50:14;100937.53;;;13.64;100.00
32109;BME280;18624;50.042;8.436;2022-10-17T02:52:55;100920.19;;;13.64;100.00
32109;BME280;18624;50.042;8.436;2022-10-17T02:55:32;100937.63;;;13.61;100.00
32109;BME280;18624;50.042;8.436;2022-10-17T02:58:12;100933.75;;;13.58;100.00
32109;BME280;18624;50.042;8.436;2022-10-17T03:00:41;100938.66;;;13.51;100.00
32109;BME280;18624;50.042;8.436;2022-10-17T03:03:29;100936.16;;;13.56;100.00
32109;BME280;18624;50.042;8.436;2022-10-17T03:05:59;100937.72;;;13.57;100.00
32109;BME280;18624;50.042;8.436;2022-10-17T03:08:26;100932.28;;;13.54;100.00
32109;BME280;18624;50.042;8.436;2022-10-17T03:10:54;100940.22;;;13.52;100.00
32109;BME280;18624;50.042;8.436;2022-10-17T03:13:21;100943.41;;;13.50;100.00
32109;BME280;18624;50.042;8.436;2022-10-17T03:15:48;100939.09;;;13.49;100.00
32109;BME280;18624;50.042;8.436;2022-10-17T03:18:14;100943.06;;;13.48;100.00
32109;BME280;18624;50.042;8.436;2022-10-17T03:20:42;100941.09;;;13.49;100.00
32109;BME280;18624;50.042;8.436;2022-10-17T03:23:08;100940.09;;;13.42;100.00
32109;BME280;18624;50.042;8.436;2022-10-17T03:25:35;100951.34;;;13.48;100.00
32109;BME280;18624;50.042;8.436;2022-10-17T03:28:01;100952.09;;;13.49;100.00
32109;BME280;18624;50.042;8.436;2022-10-17T03:30:28;100960.81;;;13.47;100.00
32109;BME280;18624;50.042;8.436;2022-10-17T03:32:56;100956.94;;;13.45;100.00
32109;BME280;18624;50.042;8.436;2022-10-17T03:35:24;100969.59;;;13.42;100.00
32109;BME280;18624;50.042;8.436;2022-10-17T03:37:51;100961.84;;;13.37;100.00
32109;BME280;18624;50.042;8.436;2022-10-17T03:40:20;100965.03;;;13.35;100.00
32109;BME280;18624;50.042;8.436;2022-10-17T03:42:46;100971.22;;;13.39;100.00
32109;BME280;18624;50.042;8.436;2022-10-17T03:45:13;100964.94;;;13.39;100.00
32109;BME280;18624;50.042;8.436;2022-10-17T03:47:39;100967.72;;;13.39;100.00
32109;BME280;18624;50.042;8.436;2022-10-17T03:50:06;100981.47;;;13.39;100.00
32109;BME280;18624;50.042;8.436;2022-10-17T03:52:40;100976.72;;;13.39;100.00
32109;BME280;18624;50.042;8.436;2022-10-17T03:55:23;100977.50;;;13.40;100.00
32109;BME280;18624;50.042;8.436;2022-10-17T03:57:49;100935.28;;;13.14;100.00
32109;BME280;18624;50.042;8.436;2022-10-17T04:00:18;100975.97;;;13.39;100.00
32109;BME280;18624;50.042;8.436;2022-10-17T04:02:52;100974.50;;;13.34;100.00
32109;BME280;18624;50.042;8.436;2022-10-17T04:05:18;100990.19;;;13.37;100.00
32109;BME280;18624;50.042;8.436;2022-10-17T04:07:46;100990.19;;;13.37;100.00
32109;BME280;18624;50.042;8.436;2022-10-17T04:10:14;100994.88;;;13.37;100.00
32109;BME280;18624;50.042;8.436;2022-10-17T04:12:41;100967.19;;;13.11;100.00
32109;BME280;18624;50.042;8.436;2022-10-17T04:15:08;100990.78;;;13.29;100.00
32109;BME280;18624;50.042;8.436;2022-10-17T04:17:35;100980.53;;;13.29;100.00
32109;BME280;18624;50.042;8.436;2022-10-17T04:20:05;100988.03;;;13.29;100.00
32109;BME280;18624;50.042;8.436;2022-10-17T04:22:31;100980.97;;;13.28;100.00
32109;BME280;18624;50.042;8.436;2022-10-17T04:24:58;100987.22;;;13.28;100.00
32109;BME280;18624;50.042;8.436;2022-10-17T04:27:30;100975.72;;;13.17;100.00
32109;BME280;18624;50.042;8.436;2022-10-17T04:29:57;100979.16;;;13.21;100.00
32109;BME280;18624;50.042;8.436;2022-10-17T04:32:23;100984.59;;;13.25;100.00
32109;BME280;18624;50.042;8.436;2022-10-17T04:34:59;101005.41;;;13.26;100.00
32109;BME280;18624;50.042;8.436;2022-10-17T04:37:28;100987.22;;;13.28;100.00
32109;BME280;18624;50.042;8.436;2022-10-17T04:39:54;100991.97;;;13.28;100.00
32109;BME280;18624;50.042;8.436;2022-10-17T04:42:21;100991.97;;;13.28;100.00
32109;BME280;18624;50.042;8.436;2022-10-17T04:44:50;101008.16;;;13.26;100.00
32109;BME280;18624;50.042;8.436;2022-10-17T04:47:17;101003.50;;;13.23;100.00
32109;BME280;18624;50.042;8.436;2022-10-17T04:49:43;101000.41;;;13.21;100.00
32109;BME280;18624;50.042;8.436;2022-10-17T04:52:12;100998.06;;;13.19;100.00
32109;BME280;18624;50.042;8.436;2022-10-17T04:54:41;101000.03;;;13.18;100.00
32109;BME280;18624;50.042;8.436;2022-10-17T04:57:09;101006.31;;;13.19;100.00
32109;BME280;18624;50.042;8.436;2022-10-17T04:59:37;101003.22;;;13.17;100.00
32109;BME280;18624;50.042;8.436;2022-10-17T05:02:21;101008.72;;;13.17;100.00
32109;BME280;18624;50.042;8.436;2022-10-17T05:04:49;101012.69;;;13.16;100.00
32109;BME280;18624;50.042;8.436;2022-10-17T05:07:15;101015.09;;;13.14;100.00
32109;BME280;18624;50.042;8.436;2022-10-17T05:09:47;101009.69;;;13.10;100.00
32109;BME280;18624;50.042;8.436;2022-10-17T05:12:15;101010.78;;;13.13;100.00
32109;BME280;18624;50.042;8.436;2022-10-17T05:14:43;101017.44;;;13.15;100.00
32109;BME280;18624;50.042;8.436;2022-10-17T05:17:10;101007.19;;;13.16;100.00
32109;BME280;18624;50.042;8.436;2022-10-17T05:19:37;100997.72;;;13.17;100.00
32109;BME280;18624;50.042;8.436;2022-10-17T05:22:05;100996.19;;;13.16;100.00
32109;BME280;18624;50.042;8.436;2022-10-17T05:24:31;101000.56;;;13.13;100.00
32109;BME280;18624;50.042;8.436;2022-10-17T05:26:58;100999.03;;;13.12;100.00
32109;BME280;18624;50.042;8.436;2022-10-17T05:29:24;101002.53;;;13.13;100.00
32109;BME280;18624;50.042;8.436;2022-10-17T05:32:00;101014.00;;;13.11;100.00
32109;BME280;18624;50.042;8.436;2022-10-17T05:34:27;101015.19;;;13.10;100.00
32109;BME280;18624;50.042;8.436;2022-10-17T05:36:54;101017.50;;;13.12;100.00
32109;BME280;18624;50.042;8.436;2022-10-17T05:39:22;101007.88;;;13.04;100.00
32109;BME280;18624;50.042;8.436;2022-10-17T05:41:50;101014.41;;;13.10;100.00
32109;BME280;18624;50.042;8.436;2022-10-17T05:44:17;101021.13;;;13.09;100.00
32109;BME280;18624;50.042;8.436;2022-10-17T05:46:50;101012.94;;;13.05;100.00
32109;BME280;18624;50.042;8.436;2022-10-17T05:49:16;101016.97;;;13.01;100.00
32109;BME280;18624;50.042;8.436;2022-10-17T05:52:03;101015.38;;;13.03;100.00
32109;BME280;18624;50.042;8.436;2022-10-17T05:54:37;101012.25;;;13.01;100.00
32109;BME280;18624;50.042;8.436;2022-10-17T05:57:03;101020.59;;;12.98;100.00
32109;BME280;18624;50.042;8.436;2022-10-17T05:59:31;101017.75;;;13.01;100.00
32109;BME280;18624;50.042;8.436;2022-10-17T06:02:11;101020.25;;;12.96;100.00
32109;BME280;18624;50.042;8.436;2022-10-17T06:04:39;101027.28;;;12.97;100.00
32109;BME280;18624;50.042;8.436;2022-10-17T06:07:11;101034.38;;;12.98;100.00
32109;BME280;18624;50.042;8.436;2022-10-17T06:09:39;100983.09;;;12.71;100.00
32109;BME280;18624;50.042;8.436;2022-10-17T06:12:06;100953.34;;;12.50;100.00
32109;BME280;18624;50.042;8.436;2022-10-17T06:14:33;101041.34;;;13.02;100.00
32109;BME280;18624;50.042;8.436;2022-10-17T06:17:01;101042.19;;;12.99;100.00
32109;BME280;18624;50.042;8.436;2022-10-17T06:19:28;101044.59;;;12.97;100.00
32109;BME280;18624;50.042;8.436;2022-10-17T06:21:54;101050.69;;;12.88;100.00
32109;BME280;18624;50.042;8.436;2022-10-17T06:24:23;101062.63;;;12.82;100.00
32109;BME280;18624;50.042;8.436;2022-10-17T06:26:51;101058.34;;;12.81;100.00
32109;BME280;18624;50.042;8.436;2022-10-17T06:29:19;101056.59;;;12.87;100.00
32109;BME280;18624;50.042;8.436;2022-10-17T06:31:49;101056.09;;;12.92;100.00
32109;BME280;18624;50.042;8.436;2022-10-17T06:34:16;101054.81;;;12.97;100.00
32109;BME280;18624;50.042;8.436;2022-10-17T06:36:43;101055.09;;;13.02;100.00
32109;BME280;18624;50.042;8.436;2022-10-17T06:39:10;101050.78;;;13.01;100.00
32109;BME280;18624;50.042;8.436;2022-10-17T06:41:42;101055.03;;;13.06;100.00
32109;BME280;18624;50.042;8.436;2022-10-17T06:44:10;101048.81;;;13.02;100.00
32109;BME280;18624;50.042;8.436;2022-10-17T06:46:49;101060.00;;;13.11;100.00
32109;BME280;18624;50.042;8.436;2022-10-17T06:49:16;101057.59;;;13.13;100.00
32109;BME280;18624;50.042;8.436;2022-10-17T06:52:18;101032.13;;;12.92;100.00
32109;BME280;18624;50.042;8.436;2022-10-17T06:55:11;101082.19;;;13.20;100.00
32109;BME280;18624;50.042;8.436;2022-10-17T06:57:47;101084.09;;;13.23;100.00
32109;BME280;18624;50.042;8.436;2022-10-17T07:00:32;101079.28;;;13.27;100.00
32109;BME280;18624;50.042;8.436;2022-10-17T07:03:01;101079.66;;;13.29;100.00
32109;BME280;18624;50.042;8.436;2022-10-17T07:05:27;101076.81;;;13.33;100.00
32109;BME280;18624;50.042;8.436;2022-10-17T07:07:54;101084.56;;;13.38;100.00
32109;BME280;18624;50.042;8.436;2022-10-17T07:10:21;101084.81;;;13.43;100.00
32109;BME280;18624;50.042;8.436;2022-10-17T07:12:47;101086.53;;;13.54;100.00
32109;BME280;18624;50.042;8.436;2022-10-17T07:15:14;101092.97;;;13.63;100.00
32109;BME280;18624;50.042;8.436;2022-10-17T07:17:40;101092.56;;;13.65;100.00
32109;BME280;18624;50.042;8.436;2022-10-17T07:20:08;101101.91;;;13.84;100.00
32109;BME280;18624;50.042;8.436;2022-10-17T07:22:36;101099.44;;;14.02;100.00
32109;BME280;18624;50.042;8.436;2022-10-17T07:25:03;101100.28;;;14.15;100.00
32109;BME280;18624;50.042;8.436;2022-10-17T07:27:35;101106.63;;;14.29;100.00
32109;BME280;18624;50.042;8.436;2022-10-17T07:30:02;101102.44;;;14.37;100.00
32109;BME280;18624;50.042;8.436;2022-10-17T07:32:37;101105.34;;;14.46;100.00
32109;BME280;18624;50.042;8.436;2022-10-17T07:35:05;101111.34;;;14.57;100.00
32109;BME280;18624;50.042;8.436;2022-10-17T07:37:32;101112.69;;;14.65;100.00
32109;BME280;18624;50.042;8.436;2022-10-17T07:39:59;101118.00;;;14.73;100.00
32109;BME280;18624;50.042;8.436;2022-10-17T07:42:25;101118.22;;;14.78;100.00
32109;BME280;18624;50.042;8.436;2022-10-17T07:44:54;101114.06;;;14.86;100.00
32109;BME280;18624;50.042;8.436;2022-10-17T07:47:21;101114.59;;;14.94;100.00
32109;BME280;18624;50.042;8.436;2022-10-17T07:49:48;101101.81;;;15.00;100.00
32109;BME280;18624;50.042;8.436;2022-10-17T07:52:16;101105.88;;;15.08;100.00
32109;BME280;18624;50.042;8.436;2022-10-17T07:54:42;101022.75;;;14.55;100.00
32109;BME280;18624;50.042;8.436;2022-10-17T07:57:09;101111.63;;;15.14;100.00
32109;BME280;18624;50.042;8.436;2022-10-17T07:59:36;101094.28;;;15.13;100.00
32109;BME280;18624;50.042;8.436;2022-10-17T08:02:03;101110.41;;;15.28;100.00
32109;BME280;18624;50.042;8.436;2022-10-17T08:04:30;101119.22;;;15.35;100.00
32109;BME280;18624;50.042;8.436;2022-10-17T08:06:56;101118.34;;;15.38;100.00
32109;BME280;18624;50.042;8.436;2022-10-17T08:09:43;101112.25;;;15.43;100.00
32109;BME280;18624;50.042;8.436;2022-10-17T08:12:09;101105.41;;;15.48;100.00
32109;BME280;18624;50.042;8.436;2022-10-17T08:14:36;101106.06;;;15.52;100.00
32109;BME280;18624;50.042;8.436;2022-10-17T08:17:04;101106.81;;;15.53;100.00
32109;BME280;18624;50.042;8.436;2022-10-17T08:19:30;101110.25;;;15.57;100.00
32109;BME280;18624;50.042;8.436;2022-10-17T08:21:57;101116.44;;;15.61;100.00
32109;BME280;18624;50.042;8.436;2022-10-17T08:24:24;101123.06;;;15.63;100.00
32109;BME280;18624;50.042;8.436;2022-10-17T08:26:51;101117.13;;;15.65;100.00
32109;BME280;18624;50.042;8.436;2022-10-17T08:29:18;101123.63;;;15.71;100.00
32109;BME280;18624;50.042;8.436;2022-10-17T08:31:45;101124.72;;;15.74;100.00
32109;BME280;18624;50.042;8.436;2022-10-17T08:34:14;101131.03;;;15.74;100.00
32109;BME280;18624;50.042;8.436;2022-10-17T08:36:41;101122.28;;;15.76;100.00
32109;BME280;18624;50.042;8.436;2022-10-17T08:39:07;101124.63;;;15.77;100.00
32109;BME280;18624;50.042;8.436;2022-10-17T08:41:55;101127.56;;;15.83;100.00
32109;BME280;18624;50.042;8.436;2022-10-17T08:46:58;101122.59;;;15.90;100.00
32109;BME280;18624;50.042;8.436;2022-10-17T08:49:40;101132.31;;;15.95;100.00
32109;BME280;18624;50.042;8.436;2022-10-17T08:52:19;101117.91;;;16.00;100.00
32109;BME280;18624;50.042;8.436;2022-10-17T08:54:47;101124.84;;;16.05;100.00
32109;BME280;18624;50.042;8.436;2022-10-17T08:57:15;101119.53;;;16.10;100.00
32109;BME280;18624;50.042;8.436;2022-10-17T08:59:49;101118.19;;;16.15;100.00
32109;BME280;18624;50.042;8.436;2022-10-17T09:02:38;101130.66;;;16.19;100.00
32109;BME280;18624;50.042;8.436;2022-10-17T09:05:26;101115.09;;;16.13;100.00
32109;BME280;18624;50.042;8.436;2022-10-17T09:08:08;101124.22;;;16.23;100.00
32109;BME280;18624;50.042;8.436;2022-10-17T09:11:03;101124.13;;;16.26;100.00
32109;BME280;18624;50.042;8.436;2022-10-17T09:19:14;101139.56;;;16.36;100.00
32109;BME280;18624;50.042;8.436;2022-10-17T09:21:54;101140.63;;;16.39;100.00
32109;BME280;18624;50.042;8.436;2022-10-17T09:24:40;101139.28;;;16.43;100.00
32109;BME280;18624;50.042;8.436;2022-10-17T09:27:17;101130.53;;;16.45;100.00
32109;BME280;18624;50.042;8.436;2022-10-17T09:29:47;101140.38;;;16.46;100.00
32109;BME280;18624;50.042;8.436;2022-10-17T09:32:21;101137.94;;;16.48;100.00
32109;BME280;18624;50.042;8.436;2022-10-17T09:34:50;101147.03;;;16.49;100.00
32109;BME280;18624;50.042;8.436;2022-10-17T09:37:18;101145.78;;;16.50;100.00
32109;BME280;18624;50.042;8.436;2022-10-17T09:39:47;101148.09;;;16.51;100.00
32109;BME280;18624;50.042;8.436;2022-10-17T09:42:15;101146.88;;;16.52;100.00
32109;BME280;18624;50.042;8.436;2022-10-17T09:44:51;101081.00;;;16.16;100.00
32109;BME280;18624;50.042;8.436;2022-10-17T09:47:40;101151.38;;;16.59;100.00
32109;BME280;18624;50.042;8.436;2022-10-17T09:50:17;101157.81;;;16.56;100.00
32109;BME280;18624;50.042;8.436;2022-10-17T09:52:46;101102.09;;;16.23;100.00
32109;BME280;18624;50.042;8.436;2022-10-17T09:55:37;101157.44;;;16.66;100.00
32109;BME280;18624;50.042;8.436;2022-10-17T09:58:06;101171.91;;;16.70;100.00
32109;BME280;18624;50.042;8.436;2022-10-17T10:00:36;101167.84;;;16.75;100.00
32109;BME280;18624;50.042;8.436;2022-10-17T10:05:34;101159.13;;;16.86;100.00
32109;BME280;18624;50.042;8.436;2022-10-17T10:08:05;101152.63;;;16.80;100.00
32109;BME280;18624;50.042;8.436;2022-10-17T10:10:32;101175.44;;;16.93;100.00
32109;BME280;18624;50.042;8.436;2022-10-17T10:13:06;101171.34;;;16.98;100.00
32109;BME280;18624;50.042;8.436;2022-10-17T10:15:43;101113.16;;;16.66;100.00
32109;BME280;18624;50.042;8.436;2022-10-17T10:18:27;101169.19;;;17.02;100.00
32109;BME280;18624;50.042;8.436;2022-10-17T10:23:41;101182.13;;;17.05;100.00
32109;BME280;18624;50.042;8.436;2022-10-17T10:26:23;101180.91;;;17.06;100.00
32109;BME280;18624;50.042;8.436;2022-10-17T10:29:19;101174.34;;;17.12;100.00
32109;BME280;18624;50.042;8.436;2022-10-17T10:31:47;101117.72;;;16.82;100.00
32109;BME280;18624;50.042;8.436;2022-10-17T10:34:16;101171.75;;;17.18;100.00
32109;BME280;18624;50.042;8.436;2022-10-17T10:39:30;101173.31;;;17.28;100.00
32109;BME280;18624;50.042;8.436;2022-10-17T10:41:59;101176.72;;;17.32;100.00
32109;BME280;18624;50.042;8.436;2022-10-17T10:44:28;101167.16;;;17.33;100.00
32109;BME280;18624;50.042;8.436;2022-10-17T10:47:19;101166.09;;;17.31;100.00
32109;BME280;18624;50.042;8.436;2022-10-17T10:49:46;101133.84;;;17.15;100.00
32109;BME280;18624;50.042;8.436;2022-10-17T10:52:31;101174.00;;;17.51;100.00
32109;BME280;18624;50.042;8.436;2022-10-17T10:55:31;101178.94;;;17.56;100.00
32109;BME280;18624;50.042;8.436;2022-10-17T10:58:05;101169.72;;;17.59;100.00
32109;BME280;18624;50.042;8.436;2022-10-17T11:00:36;101175.13;;;17.62;100.00
32109;BME280;18624;50.042;8.436;2022-10-17T11:05:48;101170.38;;;17.72;100.00
32109;BME280;18624;50.042;8.436;2022-10-17T11:08:41;101164.25;;;17.77;100.00
32109;BME280;18624;50.042;8.436;2022-10-17T11:13:42;101157.34;;;17.91;100.00
32109;BME280;18624;50.042;8.436;2022-10-17T11:16:23;101159.81;;;17.98;100.00
32109;BME280;18624;50.042;8.436;2022-10-17T11:21:46;101156.28;;;18.16;100.00
32109;BME280;18624;50.042;8.436;2022-10-17T11:24:23;101159.69;;;18.20;100.00
32109;BME280;18624;50.042;8.436;2022-10-17T11:26:59;101156.44;;;18.21;100.00
32109;BME280;18624;50.042;8.436;2022-10-17T11:29:30;101164.91;;;18.27;100.00
32109;BME280;18624;50.042;8.436;2022-10-17T11:32:02;101159.69;;;18.29;100.00
32109;BME280;18624;50.042;8.436;2022-10-17T11:34:35;101157.19;;;18.40;100.00
32109;BME280;18624;50.042;8.436;2022-10-17T11:37:09;101160.31;;;18.33;100.00
32109;BME280;18624;50.042;8.436;2022-10-17T11:39:55;101162.13;;;18.45;100.00
32109;BME280;18624;50.042;8.436;2022-10-17T11:42:27;101169.25;;;18.46;100.00
32109;BME280;18624;50.042;8.436;2022-10-17T11:45:09;101159.03;;;18.53;100.00
32109;BME280;18624;50.042;8.436;2022-10-17T11:47:46;101164.44;;;18.56;100.00
32109;BME280;18624;50.042;8.436;2022-10-17T11:53:16;101175.53;;;18.65;100.00
32109;BME280;18624;50.042;8.436;2022-10-17T11:55:45;101174.56;;;18.68;100.00
32109;BME280;18624;50.042;8.436;2022-10-17T12:01:21;101154.56;;;18.74;100.00
32109;BME280;18624;50.042;8.436;2022-10-17T12:04:14;101154.09;;;18.75;100.00
32109;BME280;18624;50.042;8.436;2022-10-17T12:07:03;101149.31;;;18.76;100.00
32109;BME280;18624;50.042;8.436;2022-10-17T12:10:02;101147.28;;;18.76;100.00
32109;BME280;18624;50.042;8.436;2022-10-17T12:12:33;101151.16;;;18.79;100.00
32109;BME280;18624;50.042;8.436;2022-10-17T12:17:42;101154.84;;;18.85;100.00
32109;BME280;18624;50.042;8.436;2022-10-17T12:22:51;101162.38;;;18.93;100.00
32109;BME280;18624;50.042;8.436;2022-10-17T12:25:25;101146.78;;;18.96;100.00
32109;BME280;18624;50.042;8.436;2022-10-17T12:29:01;101155.06;;;19.14;100.00
32109;BME280;18624;50.042;8.436;2022-10-17T12:31:06;101161.78;;;19.22;100.00
32109;BME280;18624;50.042;8.436;2022-10-17T12:33:48;101160.25;;;19.21;100.00
32109;BME280;18624;50.042;8.436;2022-10-17T12:38:50;101160.88;;;19.26;100.00
32109;BME280;18624;50.042;8.436;2022-10-17T12:41:55;101157.16;;;19.29;100.00
32109;BME280;18624;50.042;8.436;2022-10-17T12:49:46;101163.44;;;19.38;100.00
32109;BME280;18624;50.042;8.436;2022-10-17T12:57:55;101156.94;;;19.41;100.00
32109;BME280;18624;50.042;8.436;2022-10-17T13:00:36;101155.38;;;19.40;100.00
32109;BME280;18624;50.042;8.436;2022-10-17T13:03:26;101154.22;;;19.32;100.00
32109;BME280;18624;50.042;8.436;2022-10-17T13:05:56;101153.91;;;19.30;100.00
32109;BME280;18624;50.042;8.436;2022-10-17T13:08:55;101147.25;;;19.37;100.00
32109;BME280;18624;50.042;8.436;2022-10-17T13:11:31;101135.53;;;19.33;100.00
32109;BME280;18624;50.042;8.436;2022-10-17T13:14:01;101151.50;;;19.47;100.00
32109;BME280;18624;50.042;8.436;2022-10-17T13:16:57;101160.28;;;19.55;100.00
32109;BME280;18624;50.042;8.436;2022-10-17T13:19:26;101158.41;;;19.61;100.00
32109;BME280;18624;50.042;8.436;2022-10-17T13:21:59;101153.72;;;19.67;100.00
32109;BME280;18624;50.042;8.436;2022-10-17T13:24:39;101157.41;;;19.73;100.00
32109;BME280;18624;50.042;8.436;2022-10-17T13:27:30;101156.75;;;19.78;100.00
32109;BME280;18624;50.042;8.436;2022-10-17T13:29:58;101150.06;;;19.85;100.00
32109;BME280;18624;50.042;8.436;2022-10-17T13:32:33;101159.97;;;19.86;100.00
32109;BME280;18624;50.042;8.436;2022-10-17T13:35:07;101168.75;;;19.84;100.00
32109;BME280;18624;50.042;8.436;2022-10-17T13:37:35;101158.00;;;19.77;100.00
32109;BME280;18624;50.042;8.436;2022-10-17T13:40:02;101176.44;;;19.89;100.00
32109;BME280;18624;50.042;8.436;2022-10-17T13:42:43;101173.22;;;19.91;100.00
32109;BME280;18624;50.042;8.436;2022-10-17T13:45:16;101177.81;;;19.94;100.00
32109;BME280;18624;50.042;8.436;2022-10-17T13:47:44;101154.09;;;19.84;100.00
32109;BME280;18624;50.042;8.436;2022-10-17T13:50:26;101172.25;;;19.94;100.00
32109;BME280;18624;50.042;8.436;2022-10-17T13:53:23;101177.81;;;19.94;100.00
32109;BME280;18624;50.042;8.436;2022-10-17T13:56:25;101180.31;;;19.92;100.00
32109;BME280;18624;50.042;8.436;2022-10-17T13:58:57;101155.09;;;19.71;100.00
32109;BME280;18624;50.042;8.436;2022-10-17T14:01:26;101185.63;;;19.81;100.00
32109;BME280;18624;50.042;8.436;2022-10-17T14:03:54;101193.19;;;19.80;100.00
32109;BME280;18624;50.042;8.436;2022-10-17T14:06:40;101179.78;;;19.79;100.00
32109;BME280;18624;50.042;8.436;2022-10-17T14:12:09;101186.59;;;19.78;100.00
32109;BME280;18624;50.042;8.436;2022-10-17T14:14:39;101192.59;;;19.76;100.00
32109;BME280;18624;50.042;8.436;2022-10-17T14:17:32;101183.22;;;19.73;100.00
32109;BME280;18624;50.042;8.436;2022-10-17T14:20:03;101188.88;;;19.79;100.00
32109;BME280;18624;50.042;8.436;2022-10-17T14:22:50;101181.13;;;19.83;100.00